Time;durP1;ratioP1;P1;durP2;ratioP2;P2;SDS_P1;SDS_P2;PMS_P1;PMS_P2;Temp;Humidity;BMP_temperature;BMP_pressure;BME280_temperature;BME280_humidity;BME280_pressure;Samples;Min_cycle;Max_cycle;Signal;HPM_P1;HPM_P2
2021/12/17 00:13:08;;;;;;;3.47;2.28;;;;;;;15.62;63.65;103595.84;19593040;30;20068;-75
2021/12/17 00:54:20;;;;;;;3.13;2.65;;;;;;;15.18;63.64;103535.63;19590240;30;20056;-75
2021/12/17 01:04:23;;;;;;;3.70;2.88;;;;;;;15.37;63.93;103581.47;19589560;30;20095;-75
2021/12/17 01:14:27;;;;;;;3.13;2.70;;;;;;;15.50;64.04;103611.47;19559754;30;20099;-75
2021/12/17 01:25:06;;;;;;;;;;;;;;;15.52;64.07;103630.19;19588613;30;20068;-76
2021/12/17 01:45:32;;;;;;;3.42;2.60;;;;;;;15.17;64.30;103579.50;19575336;30;20061;-76
2021/12/17 01:55:50;;;;;;;4.20;2.85;;;;;;;14.87;64.48;103549.22;19587091;30;20095;-76
2021/12/17 02:05:53;;;;;;;3.65;2.65;;;;;;;15.37;64.20;103653.06;19586947;30;20068;-76
2021/12/17 02:36:50;;;;;;;3.33;2.42;;;;;;;14.83;64.51;103575.25;19599459;30;20059;-76
2021/12/17 02:47:02;;;;;;;3.72;2.72;;;;;;;14.51;64.50;103504.75;19597578;30;20427;-76
2021/12/17 02:57:05;;;;;;;3.22;2.58;;;;;;;14.61;64.46;103532.13;19597800;30;20061;-76
2021/12/17 03:07:12;;;;;;;3.42;2.67;;;;;;;15.18;64.91;103642.97;19581698;30;20071;-76
2021/12/17 03:17:22;;;;;;;5.18;3.00;;;;;;;14.51;64.80;103515.47;19581834;30;20057;-76
2021/12/17 03:27:24;;;;;;;3.10;2.70;;;;;;;15.07;64.66;103627.22;19596759;30;20065;-76
2021/12/17 03:37:26;;;;;;;3.40;2.40;;;;;;;15.03;64.68;103619.34;19579730;30;20065;-76
2021/12/17 03:47:28;;;;;;;3.60;2.33;;;;;;;14.82;64.39;103568.13;19593573;30;20468;-76
2021/12/17 03:57:47;;;;;;;3.67;2.70;;;;;;;14.00;64.48;103429.53;19578137;30;20087;-76
2021/12/17 04:07:49;;;;;;;4.13;2.92;;;;;;;15.21;64.37;103633.91;19592006;30;20057;-76
2021/12/17 04:18:15;;;;;;;3.92;2.88;;;;;;;14.36;64.54;103477.53;19583239;30;20061;-76
2021/12/17 04:28:18;;;;;;;2.67;2.42;;;;;;;14.73;64.27;103536.25;19576389;30;20065;-76
2021/12/17 04:38:22;;;;;;;2.80;2.30;;;;;;;14.70;64.13;103536.34;19589418;30;20056;-76
2021/12/17 04:58:46;;;;;;;3.00;2.10;;;;;;;14.63;64.10;103527.59;19589370;30;20067;-76
2021/12/17 05:08:55;;;;;;;3.58;1.88;;;;;;;15.27;64.36;103651.63;19588540;30;20106;-76
2021/12/17 05:19:33;;;;;;;2.03;1.60;;;;;;;14.93;64.29;103605.34;19573487;30;20122;-76
2021/12/17 05:29:25;;;;;;;2.67;1.60;;;;;;;15.59;63.86;103652.34;19586798;30;20156;-75
2021/12/17 05:39:27;;;;;;;2.58;1.88;;;;;;;15.84;63.59;103643.41;19572855;30;20091;-76
2021/12/17 05:49:31;;;;;;;2.50;1.70;;;;;;;16.35;62.80;103661.25;19592696;30;20061;-73
2021/12/17 05:59:37;;;;;;;4.53;2.05;;;;;;;16.50;62.28;103651.69;19601244;30;20059;-76
2021/12/17 06:09:41;;;;;;;1.92;1.27;;;;;;;16.20;62.40;103583.88;19601504;30;20065;-77
2021/12/17 06:19:48;;;;;;;2.28;1.70;;;;;;;16.19;62.52;103566.88;19599715;30;20067;-77
2021/12/17 06:29:52;;;;;;;2.45;1.33;;;;;;;16.56;62.55;103604.88;19598905;30;20064;-76
2021/12/17 06:39:54;;;;;;;1.88;1.30;;;;;;;16.85;62.27;103640.50;19583766;30;20087;-77
2021/12/17 07:00:36;;;;;;;2.13;1.52;;;;;;;16.80;62.30;103634.44;19597273;30;20057;-74
2021/12/17 07:10:58;;;;;;;2.33;1.40;;;;;;;16.95;62.16;103655.31;19597334;30;20502;-73
2021/12/17 07:21:55;;;;;;;4.53;2.27;;;;;;;16.36;62.13;103551.91;19580895;30;20062;-77
2021/12/17 07:41:32;;;;;;;2.63;1.75;;;;;;;17.04;62.23;103655.91;19594118;30;20056;-75
2021/12/17 07:51:46;;;;;;;3.45;1.80;;;;;;;17.10;62.39;103670.00;19566123;30;20061;-76
2021/12/17 08:01:53;;;;;;;2.28;1.50;;;;;;;17.08;62.42;103663.81;19592588;30;20088;-78
2021/12/17 08:11:57;;;;;;;3.30;1.70;;;;;;;17.06;62.38;103680.94;19591607;30;20140;-78
2021/12/17 08:32:34;;;;;;;4.65;2.45;;;;;;;16.89;62.89;103636.75;19590325;30;20061;-75
2021/12/17 08:42:39;;;;;;;2.63;1.83;;;;;;;17.16;63.19;103684.16;19589796;30;20127;-77
2021/12/17 08:52:43;;;;;;;2.58;2.25;;;;;;;17.10;62.90;103671.81;19588974;30;20071;-76
2021/12/17 09:02:45;;;;;;;4.43;2.20;;;;;;;16.82;62.76;103632.56;19588712;30;20135;-76
2021/12/17 09:13:07;;;;;;;2.65;2.13;;;;;;;16.56;62.83;103598.59;19576298;30;20154;-73
2021/12/17 09:23:09;;;;;;;3.03;2.00;;;;;;;16.57;63.15;103608.44;19587218;30;20133;-76
2021/12/17 09:33:11;;;;;;;5.97;3.25;;;;;;;17.16;62.92;103706.53;19587385;30;20056;-76
2021/12/17 09:43:15;;;;;;;4.43;2.88;;;;;;;16.53;62.90;103621.13;19588488;30;20075;-76
2021/12/17 09:53:16;;;;;;;3.40;2.13;;;;;;;16.24;63.01;103593.56;19588148;30;20064;-76
2021/12/17 10:03:20;;;;;;;4.28;2.65;;;;;;;16.72;62.80;103664.31;19587994;30;20075;-77
2021/12/17 10:13:26;;;;;;;3.53;2.33;;;;;;;16.47;62.90;103632.13;19587548;30;20093;-74
2021/12/17 10:23:29;;;;;;;3.75;2.20;;;;;;;16.91;62.52;103702.13;19586151;30;20064;-77
2021/12/17 10:33:31;;;;;;;3.10;1.95;;;;;;;17.10;63.52;103733.72;19587925;30;20059;-70
2021/12/17 10:43:41;;;;;;;3.90;2.33;;;;;;;16.86;63.96;103703.25;19600539;30;20064;-71
2021/12/17 10:53:54;;;;;;;3.42;2.00;;;;;;;16.89;64.71;103704.00;19598849;30;20080;-76
2021/12/17 11:04:05;;;;;;;6.97;2.55;;;;;;;16.48;64.63;103628.50;19598122;30;20519;-75
2021/12/17 11:14:22;;;;;;;2.70;2.00;;;;;;;16.90;64.78;103700.38;19597145;30;20079;-74
2021/12/17 11:24:30;;;;;;;5.45;2.40;;;;;;;16.41;64.67;103610.88;19596995;30;20151;-74
2021/12/17 11:34:33;;;;;;;3.05;1.70;;;;;;;16.44;65.11;103625.06;19580494;30;20118;-74
2021/12/17 11:44:40;;;;;;;5.20;2.25;;;;;;;17.06;64.95;103726.69;19594686;30;20067;-75
2021/12/17 11:54:41;;;;;;;2.25;2.03;;;;;;;17.06;64.90;103753.63;19595407;30;20049;-76
2021/12/17 12:04:56;;;;;;;3.42;1.85;;;;;;;17.05;64.77;103741.09;19578420;30;20072;-74
2021/12/17 12:15:17;;;;;;;2.30;1.87;;;;;;;17.05;64.76;103743.78;19577871;30;20065;-74
2021/12/17 12:25:30;;;;;;;1.92;1.40;;;;;;;16.95;64.71;103730.66;19592589;30;20127;-74
2021/12/17 12:35:32;;;;;;;2.47;1.42;;;;;;;16.99;64.61;103726.06;19591735;30;20095;-73
2021/12/17 12:45:39;;;;;;;3.20;1.48;;;;;;;17.03;64.66;103732.22;19591267;30;20056;-73
2021/12/17 12:55:46;;;;;;;1.85;1.40;;;;;;;16.77;64.39;103667.69;19574516;30;20447;-73
2021/12/17 13:05:51;;;;;;;2.42;1.80;;;;;;;16.37;64.22;103605.63;19589090;30;20056;-73
2021/12/17 13:26:08;;;;;;;1.23;1.02;;;;;;;16.49;63.90;103608.75;19589480;30;20501;-73
2021/12/17 13:36:13;;;;;;;1.10;1.00;;;;;;;16.99;64.05;103709.06;19573786;30;20060;-73
2021/12/17 13:46:15;;;;;;;1.07;0.97;;;;;;;16.58;63.79;103613.75;19588911;30;20060;-73
2021/12/17 13:56:17;;;;;;;1.05;0.80;;;;;;;16.94;63.83;103667.03;19572538;30;20053;-73
2021/12/17 14:06:27;;;;;;;1.00;0.80;;;;;;;16.47;63.78;103602.56;19573743;30;20060;-72
2021/12/17 14:16:33;;;;;;;1.45;1.00;;;;;;;16.40;63.69;103580.41;19599788;30;20130;-72
2021/12/17 14:26:35;;;;;;;0.95;0.77;;;;;;;16.66;63.44;103616.16;19599721;30;20060;-72
2021/12/17 14:36:41;;;;;;;0.60;0.60;;;;;;;17.11;63.33;103681.63;19600039;30;20454;-72
2021/12/17 15:07:36;;;;;;;1.10;0.70;;;;;;;17.04;63.21;103691.78;19568172;30;20068;-72
2021/12/17 15:17:38;;;;;;;0.50;0.50;;;;;;;16.52;63.22;103614.88;19597081;30;20065;-74
2021/12/17 15:27:51;;;;;;;0.95;0.55;;;;;;;16.61;63.18;103607.41;19581311;30;20068;-72
2021/12/17 15:37:55;;;;;;;1.45;0.70;;;;;;;17.13;62.89;103679.75;19594522;30;20060;-72
2021/12/17 15:47:57;;;;;;;0.70;0.68;;;;;;;16.47;62.79;103575.66;19594899;30;20137;-72
2021/12/17 15:58:01;;;;;;;2.25;1.00;;;;;;;17.20;62.38;103710.84;19592967;30;20069;-73
2021/12/17 16:08:05;;;;;;;0.80;0.80;;;;;;;17.09;62.76;103688.88;19578105;30;20064;-72
2021/12/17 16:18:37;;;;;;;1.20;1.10;;;;;;;16.41;62.58;103568.72;19592969;30;20528;-73
2021/12/17 16:28:38;;;;;;;1.17;0.93;;;;;;;17.17;62.84;103694.81;19592124;30;20060;-73
2021/12/17 16:38:41;;;;;;;1.75;1.52;;;;;;;17.17;62.45;103686.75;19591895;30;20048;-72
2021/12/17 16:48:44;;;;;;;1.60;1.13;;;;;;;16.99;62.49;103669.53;19575517;30;20467;-72
2021/12/17 16:58:47;;;;;;;1.77;1.17;;;;;;;17.23;62.59;103694.59;19574849;30;20128;-72
2021/12/17 17:08:49;;;;;;;1.00;0.90;;;;;;;17.23;62.57;103702.69;19590457;30;20071;-73
2021/12/17 17:18:51;;;;;;;1.13;1.02;;;;;;;16.74;62.45;103608.63;19589688;30;20156;-72
2021/12/17 17:28:53;;;;;;;1.20;1.10;;;;;;;16.62;62.18;103596.56;19573881;30;20503;-72
2021/12/17 17:38:55;;;;;;;1.58;1.20;;;;;;;16.82;62.21;103632.56;19588830;30;20060;-73
2021/12/17 17:48:58;;;;;;;1.77;1.35;;;;;;;16.66;62.07;103600.00;19599237;30;20473;-72
2021/12/17 17:59:00;;;;;;;2.20;1.20;;;;;;;17.09;62.15;103699.66;19602622;30;20067;-72
2021/12/17 18:09:02;;;;;;;1.10;1.00;;;;;;;17.14;61.88;103689.56;19586479;30;20053;-72
2021/12/17 18:19:03;;;;;;;1.42;1.33;;;;;;;17.05;61.88;103687.25;19601493;30;20068;-72
2021/12/17 18:29:05;;;;;;;1.25;1.15;;;;;;;17.25;61.78;103707.97;19575963;30;20064;-73
2021/12/17 18:39:07;;;;;;;1.15;1.05;;;;;;;17.10;61.95;103709.47;21272636;24;20060;-73
2021/12/17 18:49:11;;;;;;;1.00;0.90;;;;;;;17.27;61.83;103741.09;19640027;30;20105;-73
2021/12/17 18:59:13;;;;;;;1.52;0.77;;;;;;;17.13;61.61;103701.28;19631501;30;20469;-73
2021/12/17 19:09:16;;;;;;;1.00;0.90;;;;;;;17.21;61.64;103719.81;19624474;30;20088;-73
2021/12/17 19:19:25;;;;;;;0.80;0.60;;;;;;;17.21;61.61;103726.06;19607007;30;20452;-73
2021/12/17 19:29:27;;;;;;;0.95;0.90;;;;;;;17.19;61.45;103719.00;19630509;30;20056;-73
2021/12/17 19:39:29;;;;;;;1.02;0.90;;;;;;;17.13;61.52;103690.50;19646835;30;20173;-73
2021/12/17 19:59:36;;;;;;;0.57;0.57;;;;;;;17.25;61.11;103714.25;19717080;30;20071;-73
2021/12/17 20:09:39;;;;;;;0.77;0.60;;;;;;;16.71;61.35;103615.94;19735546;29;20292;-73
2021/12/17 20:19:42;;;;;;;0.68;0.68;;;;;;;16.62;61.10;103619.91;19682718;30;20068;-73
2021/12/17 20:29:44;;;;;;;0.98;0.93;;;;;;;17.10;61.05;103686.16;19699477;30;20071;-73
2021/12/17 20:39:49;;;;;;;1.38;1.27;;;;;;;17.21;60.79;103717.13;19719716;30;20055;-73
2021/12/17 20:49:52;;;;;;;0.93;0.80;;;;;;;16.24;61.10;103631.19;19709522;30;20052;-73
2021/12/17 20:59:53;;;;;;;1.10;1.00;;;;;;;17.23;60.74;103747.56;19714278;30;20058;-73
2021/12/17 21:09:59;;;;;;;1.48;1.00;;;;;;;17.15;60.90;103726.31;19705697;30;20163;-73
2021/12/17 21:20:01;;;;;;;1.17;0.80;;;;;;;17.08;60.50;103724.81;19725328;30;20052;-73
2021/12/17 21:30:04;;;;;;;1.30;1.10;;;;;;;17.22;60.56;103754.75;19708850;30;20144;-73
2021/12/17 21:40:06;;;;;;;1.48;1.23;;;;;;;16.66;60.65;103645.75;19706281;30;20059;-73
2021/12/17 21:50:13;;;;;;;1.70;1.45;;;;;;;17.21;60.76;103719.81;19679312;30;20465;-73
2021/12/17 22:00:21;;;;;;;1.20;1.10;;;;;;;17.18;60.54;103693.88;19692373;30;20056;-73
2021/12/17 22:10:24;;;;;;;1.80;1.35;;;;;;;16.44;60.18;103594.63;19707895;30;20072;-73
2021/12/17 22:30:43;;;;;;;1.10;1.00;;;;;;;16.62;60.52;103603.75;19723454;30;20063;-73
2021/12/17 22:51:08;;;;;;;2.42;1.33;;;;;;;16.88;60.39;103652.94;19732052;30;20063;-73
2021/12/17 23:01:17;;;;;;;1.30;1.20;;;;;;;17.24;60.24;103712.50;19731044;30;20055;-73
2021/12/17 23:11:19;;;;;;;1.45;1.05;;;;;;;16.51;60.34;103582.66;19717986;30;20055;-73
2021/12/17 23:21:21;;;;;;;1.15;1.08;;;;;;;17.13;60.26;103690.50;19722571;30;20048;-73
2021/12/17 23:31:26;;;;;;;1.73;1.40;;;;;;;16.84;60.25;103627.97;19736350;30;20067;-74
2021/12/17 23:41:28;;;;;;;1.43;1.20;;;;;;;17.21;60.25;103693.75;19735323;30;20564;-73
2021/12/17 23:51:30;;;;;;;1.23;1.13;;;;;;;17.09;60.17;103673.63;19666164;30;20064;-73
